createdAt,value
2018-07-11T10:08:20.448Z,32.66
2018-07-11T10:11:44.898Z,32.32
2018-07-11T10:15:09.307Z,32.64
2018-07-11T10:18:33.763Z,31.90
2018-07-11T10:21:58.215Z,30.39
2018-07-11T10:25:22.702Z,31.04
2018-07-11T10:28:47.121Z,30.50
2018-07-11T10:32:11.605Z,29.65
2018-07-11T10:35:36.062Z,29.97
2018-07-11T10:39:00.581Z,29.28
2018-07-11T10:42:25.035Z,31.51
2018-07-11T10:45:49.501Z,31.92
2018-07-11T10:49:13.992Z,32.41
2018-07-11T10:52:38.532Z,32.56
2018-07-11T10:56:03.006Z,32.34
2018-07-11T10:59:27.659Z,34.75
2018-07-11T11:02:52.120Z,35.95
2018-07-11T11:06:16.556Z,35.23
2018-07-11T11:09:41.013Z,36.52
2018-07-11T11:13:05.492Z,35.63
2018-07-11T11:16:29.962Z,35.80
2018-07-11T11:19:54.381Z,34.73
2018-07-11T11:23:18.937Z,34.50
2018-07-11T11:26:43.360Z,34.07
2018-07-11T11:30:07.806Z,32.88
2018-07-11T11:33:32.237Z,31.66
2018-07-11T11:36:56.694Z,31.12
2018-07-11T11:40:21.171Z,28.54
2018-07-11T11:43:45.647Z,29.15
2018-07-11T11:47:10.045Z,28.15
2018-07-11T11:50:34.534Z,25.10
2018-07-11T11:53:58.995Z,25.52
2018-07-11T11:57:24.016Z,22.77
2018-07-11T12:00:48.444Z,22.49
2018-07-11T12:04:12.953Z,22.02
2018-07-11T12:07:37.429Z,22.18
2018-07-11T12:11:01.903Z,22.98
2018-07-11T12:14:26.347Z,21.56
2018-07-11T12:17:50.809Z,23.15
2018-07-11T12:21:15.341Z,25.08
2018-07-11T12:24:39.781Z,29.12
2018-07-11T12:28:05.785Z,29.79
2018-07-11T12:31:30.279Z,29.02
2018-07-11T12:34:54.734Z,30.46
2018-07-11T12:38:19.177Z,32.17
2018-07-11T12:41:43.618Z,33.19
2018-07-11T12:45:08.181Z,34.31
2018-07-11T12:48:38.010Z,35.06
2018-07-11T12:52:02.471Z,34.32
2018-07-11T12:55:26.939Z,33.62
2018-07-11T12:58:51.614Z,35.78
2018-07-11T13:02:16.112Z,32.02
2018-07-11T13:05:40.567Z,32.22
2018-07-11T13:09:05.701Z,33.91
2018-07-11T13:12:30.193Z,35.06
2018-07-11T13:15:54.722Z,36.30
2018-07-11T13:19:19.206Z,37.52
2018-07-11T13:22:43.716Z,38.52
2018-07-11T13:26:08.244Z,38.14
2018-07-11T13:29:32.701Z,37.19
2018-07-11T13:32:57.201Z,38.38
2018-07-11T13:36:21.638Z,39.52
2018-07-11T13:39:46.176Z,39.99
2018-07-11T13:43:11.957Z,41.18
2018-07-11T13:46:36.455Z,42.42
2018-07-11T13:50:00.902Z,42.58
2018-07-11T13:53:25.410Z,45.07
2018-07-11T13:56:49.870Z,47.22
2018-07-11T14:00:14.302Z,45.53
2018-07-11T14:03:38.763Z,46.99
2018-07-11T14:07:03.293Z,51.55
2018-07-11T14:10:27.723Z,58.64
2018-07-11T14:13:52.235Z,61.39
2018-07-11T14:17:16.730Z,62.20
2018-07-11T14:20:41.245Z,62.10
2018-07-11T14:24:05.714Z,63.68
2018-07-11T14:27:30.341Z,62.05
2018-07-11T14:30:54.800Z,58.78
2018-07-11T14:34:19.288Z,57.71
2018-07-11T14:37:43.846Z,56.39
2018-07-11T14:41:08.320Z,53.83
2018-07-11T14:44:32.834Z,53.65
2018-07-11T14:48:02.573Z,53.01
2018-07-11T14:51:27.270Z,49.90
2018-07-11T14:54:51.684Z,48.63
2018-07-11T14:58:16.276Z,50.74
2018-07-11T15:01:40.724Z,51.62
2018-07-11T15:05:05.241Z,51.27
2018-07-11T15:08:29.747Z,51.49
2018-07-11T15:11:54.212Z,55.34
2018-07-11T15:15:18.632Z,57.10
2018-07-11T15:18:43.110Z,58.84
2018-07-11T15:22:07.628Z,60.87
2018-07-11T15:25:32.083Z,62.72
2018-07-11T15:28:56.721Z,62.49
2018-07-11T15:32:21.434Z,64.92
2018-07-11T15:35:46.561Z,68.66
2018-07-11T15:39:11.048Z,70.39
2018-07-11T15:42:36.062Z,69.98
2018-07-11T15:46:00.537Z,72.44
2018-07-11T15:49:25.004Z,73.16
2018-07-11T15:52:49.899Z,73.91
2018-07-11T15:56:14.407Z,73.96
2018-07-11T15:59:52.367Z,74.48
2018-07-11T16:03:16.871Z,74.13
2018-07-11T16:06:41.395Z,74.82
2018-07-11T16:10:05.895Z,73.97
2018-07-11T16:13:30.433Z,74.37
2018-07-11T16:16:57.022Z,76.30
2018-07-11T16:20:22.394Z,75.37
2018-07-11T16:23:47.207Z,75.94
2018-07-11T16:27:11.637Z,75.92
2018-07-11T16:30:36.752Z,75.48
2018-07-11T16:34:01.498Z,75.60
2018-07-11T16:37:26.036Z,75.99
2018-07-11T16:40:50.908Z,76.28
2018-07-11T16:44:15.361Z,75.51
2018-07-11T16:47:39.844Z,76.83
2018-07-11T16:51:04.418Z,76.68
2018-07-11T16:54:28.922Z,77.81
2018-07-11T16:57:54.168Z,78.36
2018-07-11T17:01:19.013Z,78.14
2018-07-11T17:04:43.571Z,78.88
2018-07-11T17:08:08.089Z,78.34
2018-07-11T17:11:32.750Z,79.33
2018-07-11T17:15:00.985Z,77.11
2018-07-11T17:18:44.657Z,76.78
2018-07-11T17:22:09.424Z,75.34
2018-07-11T17:25:39.976Z,75.42
2018-07-11T17:29:05.034Z,75.26
2018-07-11T17:32:30.851Z,76.13
2018-07-11T17:35:55.763Z,75.73
2018-07-11T17:39:20.633Z,76.08
2018-07-11T17:42:45.837Z,77.49
2018-07-11T17:46:10.277Z,76.89
2018-07-11T17:49:40.324Z,78.18
2018-07-11T17:53:13.553Z,77.59
2018-07-11T17:56:55.327Z,77.94
2018-07-11T18:00:33.315Z,78.34
2018-07-11T18:04:08.615Z,77.49
2018-07-11T18:07:47.538Z,78.28
2018-07-11T18:11:12.929Z,77.36
2018-07-11T18:15:04.152Z,78.33
2018-07-11T18:19:59.814Z,78.56
2018-07-11T18:23:41.231Z,78.15
2018-07-11T18:27:19.331Z,78.92
2018-07-11T18:31:01.280Z,78.06
2018-07-11T18:36:44.011Z,78.12
2018-07-11T18:40:29.493Z,77.46
2018-07-11T18:44:17.599Z,78.09
2018-07-11T18:49:16.410Z,79.34
2018-07-11T18:53:00.597Z,78.58
2018-07-11T18:56:42.708Z,78.16
2018-07-11T19:00:45.435Z,78.08
2018-07-11T19:04:23.975Z,77.46
2018-07-11T19:08:04.836Z,78.25
2018-07-11T19:11:43.993Z,78.07
2018-07-11T19:15:11.486Z,78.60
2018-07-11T19:18:47.258Z,78.09
2018-07-11T19:22:35.982Z,78.74
2018-07-11T19:27:16.469Z,77.76
2018-07-11T19:30:58.095Z,78.44
2018-07-11T19:35:31.092Z,77.32
2018-07-11T19:39:10.267Z,77.50
2018-07-11T19:43:05.107Z,77.84
2018-07-11T19:48:54.286Z,78.56
2018-07-11T19:53:36.463Z,78.55
2018-07-11T19:57:03.738Z,78.11
2018-07-11T20:00:29.273Z,78.70
2018-07-11T20:03:55.260Z,78.31
2018-07-11T20:07:19.976Z,78.00
2018-07-11T20:10:45.273Z,78.10
2018-07-11T20:14:10.428Z,77.27
2018-07-11T20:17:36.247Z,78.15
2018-07-11T20:21:01.455Z,78.71
2018-07-11T20:24:26.983Z,78.52
2018-07-11T20:27:51.461Z,78.93
2018-07-11T20:31:16.340Z,77.87
2018-07-11T20:34:40.798Z,78.68
2018-07-11T20:38:05.492Z,77.94
2018-07-11T20:41:30.009Z,78.07
2018-07-11T20:44:54.904Z,78.59
2018-07-11T20:48:19.496Z,77.92
2018-07-11T20:51:43.962Z,78.48
2018-07-11T20:55:08.381Z,78.43
2018-07-11T20:58:49.845Z,78.04
2018-07-11T21:02:31.260Z,78.44
2018-07-11T21:06:29.984Z,78.84
2018-07-11T21:11:14.419Z,78.37
2018-07-11T21:15:02.799Z,78.54
2018-07-11T21:18:50.590Z,78.49
2018-07-11T21:22:15.040Z,78.35
2018-07-11T21:25:39.483Z,78.92
2018-07-11T21:29:03.914Z,79.09
2018-07-11T21:32:28.410Z,78.26
2018-07-11T21:35:52.806Z,78.48
2018-07-11T21:39:17.338Z,79.10
2018-07-11T21:42:41.809Z,78.55
2018-07-11T21:46:06.400Z,78.87
2018-07-11T21:49:30.838Z,77.61
2018-07-11T21:52:55.251Z,78.04
2018-07-11T21:56:19.696Z,77.34
2018-07-11T21:59:44.134Z,77.65
2018-07-11T22:03:09.523Z,78.39
2018-07-11T22:06:34.023Z,78.41
2018-07-11T22:09:58.453Z,77.64
2018-07-11T22:13:23.008Z,78.57
2018-07-11T22:16:47.429Z,78.39
2018-07-11T22:20:10.215Z,78.46
2018-07-11T22:23:33.013Z,78.21
2018-07-11T22:26:56.046Z,78.07
2018-07-11T22:30:18.840Z,78.37
2018-07-11T22:33:41.619Z,78.33
2018-07-11T22:37:04.400Z,78.76
2018-07-11T22:40:27.225Z,78.83
2018-07-11T22:43:50.027Z,78.39
2018-07-11T22:47:12.791Z,79.22
2018-07-11T22:50:35.562Z,78.96
2018-07-11T22:53:58.356Z,78.24
2018-07-11T22:57:21.420Z,78.96
2018-07-11T23:00:44.192Z,79.17
2018-07-11T23:04:06.953Z,79.14
2018-07-11T23:07:29.737Z,79.65
2018-07-11T23:10:52.532Z,79.22
2018-07-11T23:14:15.321Z,79.03
2018-07-11T23:17:38.095Z,79.46
2018-07-11T23:21:00.873Z,79.51
2018-07-11T23:24:24.042Z,78.97
2018-07-11T23:27:46.826Z,78.98
2018-07-11T23:31:09.625Z,78.90
2018-07-11T23:34:32.387Z,79.04
2018-07-11T23:37:55.165Z,79.04
2018-07-11T23:41:17.936Z,79.12
2018-07-11T23:44:40.696Z,79.46
2018-07-11T23:48:03.490Z,78.25
2018-07-11T23:51:26.262Z,78.70
2018-07-11T23:54:49.049Z,78.66
2018-07-11T23:58:11.841Z,78.15
